createdAt,value
2022-08-11T00:01:05.315Z,30.23
2022-08-11T00:03:43.163Z,30.29
2022-08-11T00:06:11.431Z,30.18
2022-08-11T00:08:38.625Z,30.27
2022-08-11T00:11:08.433Z,30.26
2022-08-11T00:13:37.389Z,30.27
2022-08-11T00:16:11.104Z,30.12
2022-08-11T00:18:41.424Z,30.27
2022-08-11T00:21:08.383Z,30.26
2022-08-11T00:23:41.615Z,30.24
2022-08-11T00:26:08.835Z,30.26
2022-08-11T00:28:36.236Z,30.26
2022-08-11T00:31:11.537Z,30.25
2022-08-11T00:33:44.694Z,30.24
2022-08-11T00:36:16.212Z,30.25
2022-08-11T00:38:45.631Z,30.24
2022-08-11T00:41:18.249Z,30.24
2022-08-11T00:44:07.813Z,30.23
2022-08-11T00:46:52.456Z,30.22
2022-08-11T00:49:54.347Z,30.22
2022-08-11T00:52:32.923Z,30.21
2022-08-11T00:55:03.556Z,30.19
2022-08-11T00:57:37.780Z,30.19
2022-08-11T01:00:19.383Z,30.19
2022-08-11T01:02:48.695Z,29.50
2022-08-11T01:05:36.839Z,30.18
2022-08-11T01:08:37.463Z,30.17
2022-08-11T01:11:22.000Z,30.16
2022-08-11T01:14:34.058Z,30.15
2022-08-11T01:17:22.612Z,30.15
2022-08-11T01:20:47.009Z,30.13
2022-08-11T01:22:59.532Z,30.13
2022-08-11T01:25:57.445Z,30.13
2022-08-11T01:28:53.544Z,30.11
2022-08-11T01:31:38.331Z,30.12
2022-08-11T01:34:27.879Z,30.10
2022-08-11T01:37:06.324Z,30.11
2022-08-11T01:40:11.550Z,30.09
2022-08-11T01:43:25.060Z,30.09
2022-08-11T01:46:12.540Z,30.08
2022-08-11T01:48:48.136Z,30.07
2022-08-11T01:51:58.419Z,30.07
2022-08-11T01:54:35.623Z,30.05
2022-08-11T01:57:20.845Z,30.05
2022-08-11T02:00:07.495Z,30.01
2022-08-11T02:02:48.534Z,30.04
2022-08-11T02:05:28.474Z,30.03
2022-08-11T02:08:02.995Z,30.03
2022-08-11T02:11:05.480Z,30.01
2022-08-11T02:13:53.731Z,30.02
2022-08-11T02:16:46.660Z,30.01
2022-08-11T02:19:59.837Z,30.01
2022-08-11T02:22:58.299Z,29.97
2022-08-11T02:25:56.230Z,29.76
2022-08-11T02:28:46.617Z,29.98
2022-08-11T02:32:25.103Z,29.98
2022-08-11T02:35:23.547Z,29.96
2022-08-11T02:38:18.968Z,29.96
2022-08-11T02:41:34.386Z,29.95
2022-08-11T02:44:59.471Z,29.93
2022-08-11T02:47:38.224Z,29.93
2022-08-11T02:50:23.532Z,29.91
2022-08-11T02:53:17.493Z,29.92
2022-08-11T02:56:28.358Z,29.90
2022-08-11T02:59:25.461Z,29.91
2022-08-11T03:02:04.596Z,29.90
2022-08-11T03:04:57.534Z,29.90
2022-08-11T03:08:01.263Z,29.89
2022-08-11T03:10:33.809Z,29.87
2022-08-11T03:13:43.967Z,29.88
2022-08-11T03:16:38.558Z,29.77
2022-08-11T03:19:23.510Z,29.87
2022-08-11T03:22:03.647Z,29.86
2022-08-11T03:24:51.441Z,29.84
2022-08-11T03:27:43.034Z,29.85
2022-08-11T03:30:26.587Z,29.85
2022-08-11T03:33:33.753Z,29.78
2022-08-11T03:36:20.285Z,29.81
2022-08-11T03:39:06.107Z,29.82
2022-08-11T03:42:03.368Z,29.81
2022-08-11T03:45:05.420Z,29.81
2022-08-11T03:47:37.812Z,29.81
2022-08-11T03:50:48.955Z,29.80
2022-08-11T03:53:55.937Z,29.80
2022-08-11T03:56:44.069Z,29.78
2022-08-11T03:59:43.407Z,29.77
2022-08-11T04:02:33.578Z,29.77
2022-08-11T04:05:07.389Z,29.60
2022-08-11T04:07:58.332Z,29.75
2022-08-11T04:11:01.288Z,28.68
2022-08-11T04:13:58.138Z,29.71
2022-08-11T04:16:44.346Z,29.73
2022-08-11T04:19:40.374Z,29.41
2022-08-11T04:22:42.015Z,29.73
2022-08-11T04:25:21.051Z,29.72
2022-08-11T04:28:04.606Z,29.72
2022-08-11T04:31:10.028Z,29.71
2022-08-11T04:33:56.566Z,29.70
2022-08-11T04:37:30.490Z,29.69
2022-08-11T04:40:36.887Z,29.69
2022-08-11T04:43:31.880Z,29.67
2022-08-11T04:46:37.508Z,29.67
2022-08-11T04:49:44.205Z,29.09
2022-08-11T04:52:52.575Z,29.66
2022-08-11T04:56:08.535Z,29.66
2022-08-11T04:59:24.510Z,29.65
2022-08-11T05:02:26.589Z,29.63
2022-08-11T05:05:35.175Z,29.62
2022-08-11T05:08:24.202Z,29.61
2022-08-11T05:11:24.789Z,29.61
2022-08-11T05:14:19.901Z,29.58
2022-08-11T05:17:16.572Z,29.61
2022-08-11T05:20:05.990Z,29.60
2022-08-11T05:23:06.540Z,29.60
2022-08-11T05:26:43.960Z,29.58
2022-08-11T05:29:23.865Z,29.46
2022-08-11T05:32:17.737Z,29.60
2022-08-11T05:34:57.053Z,29.60
2022-08-11T05:37:37.133Z,29.58
2022-08-11T05:40:28.208Z,29.59
2022-08-11T05:43:31.198Z,29.57
2022-08-11T05:46:19.605Z,29.58
2022-08-11T05:49:05.519Z,29.59
2022-08-11T05:51:55.811Z,29.56
2022-08-11T05:54:50.587Z,29.57
2022-08-11T05:57:49.576Z,29.57
2022-08-11T06:00:14.522Z,29.57
2022-08-11T06:02:55.268Z,29.58
2022-08-11T06:05:22.939Z,29.58
2022-08-11T06:07:55.692Z,29.49
2022-08-11T06:10:30.665Z,29.57
2022-08-11T06:12:58.316Z,29.57
2022-08-11T06:15:25.834Z,29.58
2022-08-11T06:17:53.960Z,29.58
2022-08-11T06:20:21.915Z,29.58
2022-08-11T06:22:57.408Z,29.58
2022-08-11T06:25:31.411Z,29.58
2022-08-11T06:27:58.686Z,29.59
2022-08-11T06:30:35.038Z,29.60
2022-08-11T06:33:04.318Z,29.03
2022-08-11T06:35:57.231Z,29.60
2022-08-11T06:38:38.073Z,29.60
2022-08-11T06:41:32.513Z,29.61
2022-08-11T06:44:14.155Z,29.62
2022-08-11T06:46:41.752Z,29.61
2022-08-11T06:49:30.485Z,29.61
2022-08-11T06:52:32.141Z,29.61
2022-08-11T06:55:06.530Z,29.63
2022-08-11T06:57:57.724Z,29.62
2022-08-11T07:00:28.771Z,29.63
2022-08-11T07:03:11.451Z,29.54
2022-08-11T07:05:37.861Z,29.64
2022-08-11T07:08:35.764Z,29.66
2022-08-11T07:11:45.914Z,29.65
2022-08-11T07:14:38.525Z,29.66
2022-08-11T07:17:10.619Z,29.66
2022-08-11T07:19:57.281Z,29.65
2022-08-11T07:22:44.670Z,29.67
2022-08-11T07:25:33.976Z,29.55
2022-08-11T07:28:23.547Z,29.68
2022-08-11T07:30:58.451Z,29.68
2022-08-11T07:34:07.959Z,29.68
2022-08-11T07:36:38.728Z,29.70
2022-08-11T07:39:12.705Z,29.60
2022-08-11T07:41:39.571Z,29.76
2022-08-11T07:44:09.734Z,29.80
2022-08-11T07:47:01.123Z,29.74
2022-08-11T07:49:49.786Z,29.66
2022-08-11T07:52:33.815Z,29.60
2022-08-11T07:55:50.212Z,29.55
2022-08-11T07:58:38.768Z,29.55
2022-08-11T08:01:37.011Z,29.54
2022-08-11T08:04:25.035Z,29.49
2022-08-11T08:07:11.319Z,29.47
2022-08-11T08:09:57.679Z,29.45
2022-08-11T08:12:44.005Z,29.40
2022-08-11T08:15:30.996Z,29.35
2022-08-11T08:18:09.350Z,29.34
2022-08-11T08:20:49.834Z,29.26
2022-08-11T08:23:18.340Z,29.31
2022-08-11T08:25:45.957Z,29.31
2022-08-11T08:28:17.706Z,29.23
2022-08-11T08:30:47.835Z,29.34
2022-08-11T08:33:26.415Z,29.41
2022-08-11T08:36:11.829Z,29.39
2022-08-11T08:38:41.053Z,29.33
2022-08-11T08:41:08.893Z,29.22
2022-08-11T08:43:48.610Z,29.43
2022-08-11T08:46:20.705Z,29.26
2022-08-11T08:48:48.274Z,29.42
2022-08-11T08:51:54.681Z,29.33
2022-08-11T08:54:29.607Z,29.28
2022-08-11T08:56:57.254Z,29.34
2022-08-11T08:59:26.994Z,29.36
2022-08-11T09:02:13.916Z,29.37
2022-08-11T09:04:42.657Z,29.40
2022-08-11T09:07:15.439Z,29.44
2022-08-11T09:09:48.197Z,29.46
2022-08-11T09:12:17.346Z,29.48
2022-08-11T09:15:05.519Z,29.53
2022-08-11T09:17:40.436Z,29.55
2022-08-11T09:20:11.302Z,29.58
2022-08-11T09:26:09.997Z,29.61
2022-08-11T09:28:36.988Z,29.58
2022-08-11T09:31:05.303Z,29.55
2022-08-11T09:33:32.976Z,29.55
2022-08-11T09:36:20.896Z,29.55
2022-08-11T09:39:06.382Z,29.44
2022-08-11T09:42:00.757Z,29.64
2022-08-11T09:44:40.571Z,29.63
2022-08-11T09:47:15.414Z,29.62
2022-08-11T09:49:45.931Z,29.63
2022-08-11T09:52:14.495Z,29.64
2022-08-11T09:54:42.730Z,29.66
2022-08-11T09:57:36.378Z,29.66
2022-08-11T10:00:12.774Z,29.71
2022-08-11T10:02:47.280Z,29.73
2022-08-11T10:05:35.818Z,29.76
2022-08-11T10:08:03.054Z,29.79
2022-08-11T10:10:32.485Z,29.66
2022-08-11T10:13:05.330Z,29.84
2022-08-11T10:16:02.348Z,29.77
2022-08-11T10:18:51.537Z,29.83
2022-08-11T10:21:29.543Z,29.94
2022-08-11T10:24:17.779Z,29.96
2022-08-11T10:26:55.224Z,29.99
2022-08-11T10:29:45.419Z,30.01
2022-08-11T10:32:49.308Z,30.04
2022-08-11T10:35:26.216Z,30.07
2022-08-11T10:38:06.550Z,30.10
2022-08-11T10:40:38.669Z,30.13
2022-08-11T10:43:13.380Z,30.15
2022-08-11T10:46:04.083Z,30.17
2022-08-11T10:48:36.390Z,30.20
2022-08-11T10:51:13.896Z,30.11
2022-08-11T10:54:17.898Z,30.23
2022-08-11T10:57:03.284Z,30.28
2022-08-11T10:59:30.337Z,30.30
2022-08-11T11:01:59.032Z,30.17
2022-08-11T11:04:50.763Z,30.34
2022-08-11T11:07:24.119Z,30.36
2022-08-11T11:09:56.093Z,30.37
2022-08-11T11:12:51.884Z,30.39
2022-08-11T11:15:39.553Z,30.43
2022-08-11T11:18:14.513Z,30.44
2022-08-11T11:20:47.332Z,30.45
2022-08-11T11:23:40.645Z,30.47
2022-08-11T11:26:27.163Z,30.49
2022-08-11T11:29:44.914Z,30.51
2022-08-11T11:32:21.585Z,30.52
2022-08-11T11:35:06.614Z,30.54
2022-08-11T11:37:35.623Z,30.55
2022-08-11T11:40:10.955Z,30.50
2022-08-11T11:42:40.165Z,30.59
2022-08-11T11:45:08.916Z,30.61
2022-08-11T11:47:37.559Z,30.63
2022-08-11T11:50:07.372Z,30.64
2022-08-11T11:52:34.614Z,30.66
2022-08-11T11:55:02.682Z,30.68
2022-08-11T11:57:58.727Z,30.23
2022-08-11T12:00:46.942Z,30.74
2022-08-11T12:03:13.997Z,30.73
2022-08-11T12:05:42.352Z,30.75
2022-08-11T12:08:15.211Z,30.73
2022-08-11T12:10:48.138Z,30.81
2022-08-11T12:13:35.742Z,30.82
2022-08-11T12:16:33.683Z,30.81
2022-08-11T12:18:54.318Z,30.73
2022-08-11T12:21:21.827Z,30.71
2022-08-11T12:24:07.819Z,30.77
2022-08-11T12:27:15.152Z,30.65
2022-08-11T12:29:39.973Z,30.65
2022-08-11T12:32:10.165Z,30.84
2022-08-11T12:34:36.764Z,30.84
2022-08-11T12:37:06.861Z,30.85
2022-08-11T12:40:10.751Z,30.85
2022-08-11T12:43:08.308Z,30.87
2022-08-11T12:45:48.701Z,30.83
2022-08-11T12:49:00.674Z,30.91
2022-08-11T12:52:12.371Z,30.75
2022-08-11T12:54:42.211Z,30.95
2022-08-11T12:57:38.004Z,30.97
2022-08-11T13:00:25.541Z,30.98
2022-08-11T13:03:12.802Z,31.00
2022-08-11T13:05:44.579Z,31.01
2022-08-11T13:08:13.916Z,31.02
2022-08-11T13:10:59.959Z,30.86
2022-08-11T13:13:54.661Z,31.03
2022-08-11T13:16:14.838Z,31.00
2022-08-11T13:18:42.974Z,31.04
2022-08-11T13:21:20.797Z,31.06
2022-08-11T13:24:00.439Z,31.05
2022-08-11T13:26:48.099Z,31.10
2022-08-11T13:29:22.135Z,31.13
2022-08-11T13:31:51.497Z,31.17
2022-08-11T13:34:20.757Z,31.19
2022-08-11T13:36:51.929Z,31.20
2022-08-11T13:39:19.463Z,31.22
2022-08-11T13:41:48.519Z,31.23
2022-08-11T13:44:23.114Z,31.23
2022-08-11T13:46:53.466Z,31.25
2022-08-11T13:49:21.732Z,31.24
2022-08-11T13:51:49.524Z,31.31
2022-08-11T13:54:38.325Z,31.32
2022-08-11T13:57:08.256Z,31.35
2022-08-11T13:59:43.990Z,31.38
2022-08-11T14:02:28.814Z,31.41
2022-08-11T14:05:09.854Z,31.45
2022-08-11T14:07:45.493Z,31.45
2022-08-11T14:10:16.093Z,31.45
2022-08-11T14:13:06.345Z,31.41
2022-08-11T14:15:34.940Z,31.50
2022-08-11T14:18:06.428Z,31.51
2022-08-11T14:20:54.850Z,31.50
2022-08-11T14:23:28.646Z,31.51
2022-08-11T14:26:15.186Z,31.50
2022-08-11T14:28:44.972Z,31.50
2022-08-11T14:31:14.982Z,31.50
2022-08-11T14:34:00.850Z,31.51
2022-08-11T14:36:35.817Z,31.54
2022-08-11T14:39:08.417Z,31.56
2022-08-11T14:42:10.513Z,31.53
2022-08-11T14:45:01.183Z,31.63
2022-08-11T14:47:29.771Z,31.57
2022-08-11T14:50:09.550Z,31.62
2022-08-11T14:52:43.310Z,31.70
2022-08-11T14:55:30.746Z,31.74
2022-08-11T14:57:58.393Z,31.78
2022-08-11T15:00:25.776Z,31.82
2022-08-11T15:03:13.192Z,31.89
2022-08-11T15:05:55.982Z,31.91
2022-08-11T15:08:46.417Z,32.15
2022-08-11T15:11:33.338Z,32.16
2022-08-11T15:14:02.591Z,32.43
2022-08-11T15:16:48.353Z,32.52
2022-08-11T15:19:16.759Z,32.57
2022-08-11T15:22:02.029Z,32.58
2022-08-11T15:24:30.819Z,32.56
2022-08-11T15:27:19.588Z,32.54
2022-08-11T15:30:05.903Z,32.50
2022-08-11T15:32:52.388Z,32.47
2022-08-11T15:35:39.120Z,32.44
2022-08-11T15:38:11.619Z,32.42
2022-08-11T15:40:58.922Z,32.37
2022-08-11T15:43:49.979Z,32.34
2022-08-11T15:46:20.807Z,32.29
2022-08-11T15:49:12.455Z,32.33
2022-08-11T15:51:50.802Z,32.32
2022-08-11T15:54:19.591Z,32.22
2022-08-11T15:56:50.753Z,32.33
2022-08-11T15:59:42.315Z,32.34
2022-08-11T16:02:28.139Z,32.33
2022-08-11T16:04:56.703Z,32.23
2022-08-11T16:07:27.756Z,32.32
2022-08-11T16:10:05.740Z,32.33
2022-08-11T16:12:37.350Z,32.28
2022-08-11T16:15:26.379Z,32.34
2022-08-11T16:17:59.330Z,32.35
2022-08-11T16:20:28.233Z,32.36
2022-08-11T16:23:02.556Z,32.35
2022-08-11T16:27:04.133Z,32.35
2022-08-11T16:28:20.732Z,32.35
2022-08-11T16:30:48.564Z,32.35
2022-08-11T16:33:48.331Z,32.17
2022-08-11T16:36:22.798Z,32.34
2022-08-11T16:38:50.491Z,32.33
2022-08-11T16:41:42.119Z,32.33
2022-08-11T16:44:37.427Z,32.32
2022-08-11T16:47:13.086Z,32.29
2022-08-11T16:49:53.228Z,32.31
2022-08-11T16:52:22.655Z,32.30
2022-08-11T16:54:49.611Z,32.30
2022-08-11T16:57:45.644Z,32.29
2022-08-11T17:00:17.235Z,32.26
2022-08-11T17:03:10.469Z,32.28
2022-08-11T17:06:02.897Z,32.25
2022-08-11T17:08:57.438Z,32.23
2022-08-11T17:11:46.628Z,32.15
2022-08-11T17:14:16.301Z,32.19
2022-08-11T17:16:49.146Z,32.18
2022-08-11T17:20:40.257Z,32.14
2022-08-11T17:22:32.087Z,32.18
2022-08-11T17:25:00.056Z,32.12
2022-08-11T17:27:28.244Z,32.02
2022-08-11T17:29:58.525Z,32.13
2022-08-11T17:32:56.401Z,32.08
2022-08-11T17:35:31.173Z,32.08
2022-08-11T17:38:15.805Z,32.06
2022-08-11T17:41:05.153Z,31.93
2022-08-11T17:43:51.083Z,32.01
2022-08-11T17:46:37.345Z,31.97
2022-08-11T17:49:09.526Z,31.94
2022-08-11T17:51:56.824Z,31.93
2022-08-11T17:54:43.039Z,31.92
2022-08-11T17:57:47.795Z,31.91
2022-08-11T18:00:14.688Z,31.90
2022-08-11T18:03:02.519Z,31.90
2022-08-11T18:05:31.145Z,31.86
2022-08-11T18:08:21.470Z,31.85
2022-08-11T18:11:07.859Z,31.80
2022-08-11T18:13:55.636Z,31.81
2022-08-11T18:16:41.313Z,31.77
2022-08-11T18:19:27.252Z,31.72
2022-08-11T18:22:28.138Z,31.61
2022-08-11T18:25:16.996Z,31.55
2022-08-11T18:28:07.323Z,31.52
2022-08-11T18:31:03.975Z,31.39
2022-08-11T18:34:06.934Z,31.55
2022-08-11T18:36:59.274Z,31.56
2022-08-11T18:39:54.595Z,31.59
2022-08-11T18:42:43.313Z,31.60
2022-08-11T18:45:33.051Z,31.62
2022-08-11T18:48:34.213Z,31.52
2022-08-11T18:51:29.685Z,31.65
2022-08-11T18:54:23.236Z,31.68
2022-08-11T18:57:08.710Z,31.69
2022-08-11T18:59:59.104Z,31.69
2022-08-11T19:02:49.546Z,31.71
2022-08-11T19:06:32.115Z,31.71
2022-08-11T19:08:47.219Z,31.71
2022-08-11T19:11:33.766Z,31.73
2022-08-11T19:14:21.947Z,31.73
2022-08-11T19:17:09.509Z,31.73
2022-08-11T19:19:56.401Z,31.74
2022-08-11T19:22:43.267Z,31.74
2022-08-11T19:25:30.595Z,31.73
2022-08-11T19:28:16.886Z,31.73
2022-08-11T19:31:02.571Z,31.73
2022-08-11T19:34:02.982Z,31.56
2022-08-11T19:36:56.399Z,31.73
2022-08-11T19:39:42.296Z,31.48
2022-08-11T19:42:28.414Z,31.72
2022-08-11T19:45:15.372Z,31.71
2022-08-11T19:48:30.191Z,31.09
2022-08-11T19:51:09.549Z,31.56
2022-08-11T19:53:56.294Z,31.69
2022-08-11T19:56:42.289Z,31.68
2022-08-11T19:59:28.714Z,31.59
2022-08-11T20:02:14.791Z,31.63
2022-08-11T20:05:01.475Z,31.67
2022-08-11T20:07:49.064Z,31.67
2022-08-11T20:10:38.511Z,31.58
2022-08-11T20:13:28.264Z,31.67
2022-08-11T20:16:14.501Z,31.68
2022-08-11T20:19:02.093Z,31.67
2022-08-11T20:21:47.752Z,31.68
2022-08-11T20:24:34.518Z,31.61
2022-08-11T20:27:24.875Z,31.68
2022-08-11T20:30:12.654Z,31.68
2022-08-11T20:32:59.542Z,31.68
2022-08-11T20:35:45.441Z,31.60
2022-08-11T20:38:33.998Z,31.67
2022-08-11T20:41:21.772Z,31.65
2022-08-11T20:44:09.536Z,31.60
2022-08-11T20:46:57.407Z,31.67
2022-08-11T20:49:50.552Z,31.67
2022-08-11T20:52:42.033Z,31.66
2022-08-11T20:55:51.599Z,31.67
2022-08-11T20:59:13.460Z,31.66
2022-08-11T21:01:41.555Z,31.34
2022-08-11T21:04:27.365Z,31.65
2022-08-11T21:07:23.605Z,31.65
2022-08-11T21:10:23.157Z,31.65
2022-08-11T21:13:26.436Z,31.66
2022-08-11T21:16:26.260Z,31.54
2022-08-11T21:20:00.564Z,31.65
2022-08-11T21:22:59.190Z,31.61
2022-08-11T21:25:55.797Z,31.56
2022-08-11T21:28:45.806Z,31.64
2022-08-11T21:31:31.762Z,31.63
2022-08-11T21:34:18.306Z,31.56
2022-08-11T21:37:04.125Z,31.60
2022-08-11T21:39:50.241Z,31.49
2022-08-11T21:42:38.340Z,31.54
2022-08-11T21:45:26.120Z,31.61
2022-08-11T21:48:14.567Z,31.59
2022-08-11T21:50:59.915Z,31.61
2022-08-11T21:53:45.731Z,31.61
2022-08-11T21:56:33.124Z,31.59
2022-08-11T21:59:19.992Z,31.50
2022-08-11T22:02:11.946Z,31.59
2022-08-11T22:04:58.698Z,31.58
2022-08-11T22:07:44.094Z,31.59
2022-08-11T22:10:40.617Z,31.58
2022-08-11T22:13:27.331Z,31.51
2022-08-11T22:16:12.993Z,31.58
2022-08-11T22:18:58.870Z,31.57
2022-08-11T22:22:03.989Z,31.58
2022-08-11T22:24:52.918Z,31.58
2022-08-11T22:27:39.393Z,31.45
2022-08-11T22:30:26.193Z,31.57
2022-08-11T22:33:12.104Z,31.57
2022-08-11T22:36:02.132Z,31.56
2022-08-11T22:38:47.991Z,31.52
2022-08-11T22:41:32.687Z,31.57
2022-08-11T22:44:18.366Z,31.55
2022-08-11T22:47:04.109Z,31.54
2022-08-11T22:49:58.219Z,31.55
2022-08-11T22:52:46.026Z,31.41
2022-08-11T22:55:31.945Z,31.53
2022-08-11T22:58:17.845Z,31.53
2022-08-11T23:01:03.294Z,31.49
2022-08-11T23:03:50.858Z,31.51
2022-08-11T23:06:37.638Z,31.51
2022-08-11T23:09:24.140Z,31.50
2022-08-11T23:12:10.605Z,31.51
2022-08-11T23:14:58.311Z,31.50
2022-08-11T23:17:45.014Z,31.49
2022-08-11T23:20:41.670Z,31.48
2022-08-11T23:23:39.152Z,31.48
2022-08-11T23:26:25.522Z,31.47
2022-08-11T23:29:12.579Z,31.46
2022-08-11T23:31:58.553Z,31.43
2022-08-11T23:35:36.867Z,31.45
2022-08-11T23:37:55.357Z,31.44
2022-08-11T23:40:44.852Z,31.44
2022-08-11T23:43:41.456Z,31.44
2022-08-11T23:46:26.712Z,31.40
2022-08-11T23:49:15.563Z,31.42
2022-08-11T23:52:02.270Z,31.42
2022-08-11T23:54:48.088Z,31.40
2022-08-11T23:57:33.044Z,31.39
